createdAt,value
2023-05-18T00:02:29.324Z,82.42
2023-05-18T00:05:31.375Z,82.41
2023-05-18T00:08:34.456Z,82.42
2023-05-18T00:11:36.093Z,82.47
2023-05-18T00:14:37.811Z,82.24
2023-05-18T00:17:39.543Z,82.22
2023-05-18T00:20:41.455Z,82.15
2023-05-18T00:23:43.054Z,82.30
2023-05-18T00:26:46.660Z,82.18
2023-05-18T00:29:48.343Z,82.20
2023-05-18T00:32:50.145Z,82.16
2023-05-18T00:35:51.753Z,82.24
2023-05-18T00:38:53.373Z,82.17
2023-05-18T00:41:55.039Z,82.21
2023-05-18T00:44:56.690Z,82.13
2023-05-18T00:47:58.414Z,82.31
2023-05-18T00:51:00.614Z,82.19
2023-05-18T00:54:02.376Z,82.14
2023-05-18T00:57:04.303Z,81.98
2023-05-18T01:00:06.855Z,82.17
2023-05-18T01:03:08.651Z,82.14
2023-05-18T01:06:10.657Z,82.06
2023-05-18T01:09:12.474Z,81.97
2023-05-18T01:12:29.961Z,82.07
2023-05-18T01:15:34.470Z,82.09
2023-05-18T01:18:43.605Z,82.15
2023-05-18T01:21:57.217Z,82.06
2023-05-18T01:25:04.666Z,82.20
2023-05-18T01:28:09.755Z,82.05
2023-05-18T01:31:11.408Z,82.03
2023-05-18T01:34:13.150Z,81.99
2023-05-18T01:37:14.919Z,82.06
2023-05-18T01:40:16.562Z,81.94
2023-05-18T01:43:20.544Z,81.98
2023-05-18T01:46:41.007Z,82.17
2023-05-18T01:49:45.684Z,82.03
2023-05-18T01:53:05.728Z,82.23
2023-05-18T01:56:08.335Z,82.21
2023-05-18T01:59:10.143Z,82.18
2023-05-18T02:02:12.135Z,82.07
2023-05-18T02:05:13.858Z,82.12
2023-05-18T02:08:15.467Z,82.08
2023-05-18T02:11:17.036Z,82.03
2023-05-18T02:14:18.608Z,82.07
2023-05-18T02:17:20.347Z,82.14
2023-05-18T02:20:22.068Z,82.05
2023-05-18T02:23:23.669Z,82.09
2023-05-18T02:26:25.349Z,82.13
2023-05-18T02:29:27.029Z,81.96
2023-05-18T02:32:28.678Z,81.94
2023-05-18T02:35:30.811Z,82.11
2023-05-18T02:38:32.808Z,82.24
2023-05-18T02:41:35.206Z,82.12
2023-05-18T02:44:36.872Z,82.15
2023-05-18T02:47:38.616Z,82.11
2023-05-18T02:50:40.318Z,82.13
2023-05-18T02:53:41.922Z,82.06
2023-05-18T02:56:43.527Z,82.05
2023-05-18T02:59:45.144Z,82.10
2023-05-18T03:02:46.952Z,82.08
2023-05-18T03:05:48.723Z,82.12
2023-05-18T03:08:50.941Z,82.22
2023-05-18T03:11:52.547Z,82.08
2023-05-18T03:14:54.300Z,82.11
2023-05-18T03:17:55.959Z,82.36
2023-05-18T03:20:57.660Z,82.40
2023-05-18T03:24:00.141Z,82.42
2023-05-18T03:27:01.818Z,82.42
2023-05-18T03:30:04.105Z,82.38
2023-05-18T03:33:06.075Z,82.42
2023-05-18T03:36:08.010Z,82.34
2023-05-18T03:39:09.638Z,82.28
2023-05-18T03:42:11.463Z,82.42
2023-05-18T03:45:13.092Z,82.15
2023-05-18T03:48:14.754Z,82.19
2023-05-18T03:51:16.813Z,82.25
2023-05-18T03:54:18.394Z,82.29
2023-05-18T03:57:20.059Z,82.23
2023-05-18T04:00:21.814Z,82.23
2023-05-18T04:03:23.608Z,82.17
2023-05-18T04:06:25.453Z,82.28
2023-05-18T04:09:27.102Z,82.16
2023-05-18T04:12:28.795Z,82.09
2023-05-18T04:15:30.535Z,82.10
2023-05-18T04:18:32.497Z,82.01
2023-05-18T04:21:34.079Z,82.10
2023-05-18T04:24:35.628Z,81.86
2023-05-18T04:27:37.872Z,81.63
2023-05-18T04:30:39.485Z,81.49
2023-05-18T04:33:41.122Z,81.35
2023-05-18T04:36:42.718Z,81.35
2023-05-18T04:39:44.477Z,81.35
2023-05-18T04:42:46.207Z,81.35
2023-05-18T04:45:47.945Z,81.30
2023-05-18T04:48:49.704Z,81.28
2023-05-18T04:51:52.913Z,81.17
2023-05-18T04:54:54.513Z,81.36
2023-05-18T04:57:56.258Z,81.39
2023-05-18T05:01:01.005Z,81.23
2023-05-18T05:04:02.603Z,81.38
2023-05-18T05:07:04.357Z,81.31
2023-05-18T05:10:06.571Z,81.47
2023-05-18T05:13:08.220Z,81.33
2023-05-18T05:16:09.831Z,81.43
2023-05-18T05:19:11.565Z,81.44
2023-05-18T05:22:13.275Z,81.48
2023-05-18T05:25:15.307Z,81.24
2023-05-18T05:28:16.979Z,81.29
2023-05-18T05:31:18.663Z,81.27
2023-05-18T05:34:20.496Z,81.04
2023-05-18T05:37:22.213Z,80.89
2023-05-18T05:40:24.243Z,80.78
2023-05-18T05:43:26.075Z,80.87
2023-05-18T05:46:27.785Z,80.85
2023-05-18T05:49:29.525Z,80.76
2023-05-18T05:52:31.221Z,80.84
2023-05-18T05:55:33.128Z,80.87
2023-05-18T05:58:34.951Z,80.67
2023-05-18T06:01:36.646Z,80.57
2023-05-18T06:04:38.575Z,80.70
2023-05-18T06:07:40.263Z,80.55
2023-05-18T06:10:41.890Z,80.30
2023-05-18T06:13:43.416Z,80.55
2023-05-18T06:16:45.163Z,80.63
2023-05-18T06:19:46.778Z,80.28
2023-05-18T06:22:48.666Z,80.42
2023-05-18T06:25:50.379Z,80.27
2023-05-18T06:28:52.053Z,80.35
2023-05-18T06:31:53.986Z,80.33
2023-05-18T06:34:55.823Z,80.49
2023-05-18T06:37:57.431Z,80.40
2023-05-18T06:40:59.177Z,80.32
2023-05-18T06:44:01.160Z,80.22
2023-05-18T06:47:03.191Z,80.25
2023-05-18T06:50:05.100Z,80.10
2023-05-18T06:53:06.724Z,80.22
2023-05-18T06:56:08.399Z,80.09
2023-05-18T06:59:10.117Z,79.95
2023-05-18T07:02:11.903Z,79.96
2023-05-18T07:05:13.674Z,79.89
2023-05-18T07:08:15.359Z,79.66
2023-05-18T07:11:16.975Z,79.70
2023-05-18T07:14:18.603Z,79.79
2023-05-18T07:17:20.251Z,79.98
2023-05-18T07:20:23.124Z,79.83
2023-05-18T07:23:26.714Z,79.57
2023-05-18T07:26:28.293Z,79.77
2023-05-18T07:29:30.441Z,79.71
2023-05-18T07:32:32.119Z,79.69
2023-05-18T07:35:33.866Z,79.59
2023-05-18T07:38:35.685Z,79.55
2023-05-18T07:41:37.333Z,79.46
2023-05-18T07:44:38.950Z,79.47
2023-05-18T07:47:40.681Z,79.69
2023-05-18T07:50:42.308Z,79.31
2023-05-18T07:53:43.973Z,79.24
2023-05-18T07:56:45.532Z,79.39
2023-05-18T07:59:47.163Z,79.32
2023-05-18T08:02:49.100Z,79.49
2023-05-18T08:05:50.958Z,79.66
2023-05-18T08:08:52.843Z,79.76
2023-05-18T08:11:54.498Z,79.38
2023-05-18T08:14:56.863Z,79.62
2023-05-18T08:17:58.476Z,79.64
2023-05-18T08:21:03.209Z,79.56
2023-05-18T08:24:06.249Z,79.48
2023-05-18T08:27:07.880Z,79.47
2023-05-18T08:30:10.160Z,79.45
2023-05-18T08:33:11.912Z,79.27
2023-05-18T08:36:13.735Z,79.19
2023-05-18T08:39:15.409Z,79.26
2023-05-18T08:42:24.488Z,78.53
2023-05-18T08:45:44.073Z,78.47
2023-05-18T08:48:45.959Z,78.54
2023-05-18T08:51:55.443Z,78.45
2023-05-18T08:54:57.450Z,78.50
2023-05-18T08:57:59.346Z,79.11
2023-05-18T09:01:01.021Z,79.01
2023-05-18T09:04:02.720Z,78.77
2023-05-18T09:07:05.404Z,79.16
2023-05-18T09:10:07.742Z,79.42
2023-05-18T09:13:09.888Z,79.13
2023-05-18T09:16:11.598Z,79.13
2023-05-18T09:19:13.404Z,79.37
2023-05-18T09:22:15.297Z,79.37
2023-05-18T09:25:18.012Z,79.21
2023-05-18T09:28:46.501Z,78.82
2023-05-18T09:31:48.693Z,78.51
2023-05-18T09:34:50.490Z,78.54
2023-05-18T09:37:52.104Z,78.57
2023-05-18T09:40:53.940Z,78.33
2023-05-18T09:43:55.595Z,78.26
2023-05-18T09:46:57.396Z,78.17
2023-05-18T09:49:59.054Z,77.93
2023-05-18T09:53:00.756Z,77.92
2023-05-18T09:56:05.089Z,77.94
2023-05-18T09:59:14.861Z,78.13
2023-05-18T10:02:18.667Z,78.11
2023-05-18T10:05:22.170Z,77.85
2023-05-18T10:08:23.834Z,77.82
2023-05-18T10:11:25.496Z,77.60
2023-05-18T10:14:28.193Z,77.63
2023-05-18T10:17:32.601Z,77.91
2023-05-18T10:20:34.795Z,77.66
2023-05-18T10:23:37.177Z,78.05
2023-05-18T10:26:39.330Z,77.98
2023-05-18T10:29:41.082Z,77.82
2023-05-18T10:32:43.433Z,77.88
2023-05-18T10:35:45.836Z,78.08
2023-05-18T10:38:48.388Z,78.10
2023-05-18T10:41:51.518Z,77.87
2023-05-18T10:44:53.667Z,77.83
2023-05-18T10:47:57.412Z,77.74
2023-05-18T10:50:59.173Z,77.64
2023-05-18T10:54:11.827Z,77.65
2023-05-18T10:57:16.576Z,77.65
2023-05-18T11:00:18.844Z,77.37
2023-05-18T11:03:20.961Z,77.91
2023-05-18T11:06:24.366Z,77.89
2023-05-18T11:09:26.583Z,77.67
2023-05-18T11:12:28.346Z,77.77
2023-05-18T11:15:51.929Z,77.83
2023-05-18T11:18:53.559Z,77.71
2023-05-18T11:21:55.264Z,77.45
2023-05-18T11:24:56.868Z,77.58
2023-05-18T11:28:03.790Z,77.99
2023-05-18T11:31:05.425Z,78.00
2023-05-18T11:34:39.100Z,77.75
2023-05-18T11:37:41.420Z,78.19
2023-05-18T11:40:47.192Z,78.12
2023-05-18T11:44:04.722Z,78.14
2023-05-18T11:47:10.769Z,77.80
2023-05-18T11:50:12.677Z,78.09
2023-05-18T11:53:17.961Z,77.82
2023-05-18T11:56:19.679Z,78.11
2023-05-18T11:59:32.488Z,78.02
2023-05-18T12:02:35.128Z,78.19
2023-05-18T12:05:37.320Z,78.25
2023-05-18T12:08:39.356Z,78.32
2023-05-18T12:11:41.435Z,78.36
2023-05-18T12:14:44.363Z,78.65
2023-05-18T12:17:47.848Z,78.75
2023-05-18T12:20:49.896Z,78.71
2023-05-18T12:23:58.881Z,78.64
2023-05-18T12:27:00.510Z,78.60
2023-05-18T12:30:02.194Z,78.42
2023-05-18T12:33:04.341Z,78.39
2023-05-18T12:36:10.370Z,78.18
2023-05-18T12:39:15.240Z,78.12
2023-05-18T12:42:16.935Z,78.26
2023-05-18T12:45:18.732Z,78.08
2023-05-18T12:48:20.437Z,78.10
2023-05-18T12:51:22.110Z,78.13
2023-05-18T12:54:29.933Z,78.10
2023-05-18T12:57:31.653Z,77.88
2023-05-18T13:00:34.745Z,77.83
2023-05-18T13:03:39.871Z,78.23
2023-05-18T13:06:41.725Z,77.96
2023-05-18T13:09:46.606Z,78.05
2023-05-18T13:12:49.587Z,77.79
2023-05-18T13:15:51.257Z,77.94
2023-05-18T13:19:01.162Z,78.09
2023-05-18T13:22:02.812Z,78.13
2023-05-18T13:25:04.965Z,78.24
2023-05-18T13:28:07.098Z,77.96
2023-05-18T13:31:09.958Z,78.45
2023-05-18T13:34:12.607Z,78.47
2023-05-18T13:37:14.885Z,78.49
2023-05-18T13:40:17.370Z,78.34
2023-05-18T13:43:19.055Z,78.28
2023-05-18T13:46:20.801Z,77.97
2023-05-18T13:49:22.391Z,78.23
2023-05-18T13:52:24.108Z,78.11
2023-05-18T13:55:25.857Z,78.23
2023-05-18T13:58:27.576Z,78.08
2023-05-18T14:01:29.188Z,78.06
2023-05-18T14:04:30.901Z,77.79
2023-05-18T14:07:32.452Z,77.52
2023-05-18T14:10:34.166Z,77.43
2023-05-18T14:13:35.923Z,77.82
2023-05-18T14:16:37.516Z,78.05
2023-05-18T14:19:39.820Z,78.46
2023-05-18T14:22:42.156Z,78.64
2023-05-18T14:25:43.985Z,78.73
2023-05-18T14:28:45.702Z,78.73
2023-05-18T14:31:47.424Z,78.55
2023-05-18T14:34:49.359Z,78.29
2023-05-18T14:37:50.940Z,78.35
2023-05-18T14:40:53.221Z,77.98
2023-05-18T14:43:54.854Z,77.94
2023-05-18T14:46:56.622Z,78.08
2023-05-18T14:49:58.238Z,78.19
2023-05-18T14:52:59.909Z,78.53
2023-05-18T14:56:01.675Z,78.49
2023-05-18T14:59:03.355Z,78.39
2023-05-18T15:02:05.248Z,78.56
2023-05-18T15:05:07.247Z,78.63
2023-05-18T15:08:08.899Z,78.81
2023-05-18T15:11:10.627Z,78.94
2023-05-18T15:14:12.289Z,78.86
2023-05-18T15:17:13.906Z,78.98
2023-05-18T15:20:15.637Z,79.00
2023-05-18T15:23:17.615Z,78.98
2023-05-18T15:26:19.230Z,79.00
2023-05-18T15:29:21.008Z,78.98
2023-05-18T15:32:22.587Z,79.12
2023-05-18T15:35:24.470Z,79.10
2023-05-18T15:38:27.265Z,79.24
2023-05-18T15:41:33.005Z,79.25
2023-05-18T15:44:34.662Z,79.07
2023-05-18T15:47:36.243Z,79.31
2023-05-18T15:50:37.871Z,79.61
2023-05-18T15:53:39.463Z,79.62
2023-05-18T15:56:41.112Z,79.86
2023-05-18T15:59:42.882Z,79.87
2023-05-18T16:02:44.633Z,79.55
2023-05-18T16:05:46.394Z,79.66
2023-05-18T16:08:48.078Z,79.54
2023-05-18T16:11:49.674Z,79.69
2023-05-18T16:14:51.353Z,80.12
2023-05-18T16:17:53.127Z,80.17
2023-05-18T16:20:54.902Z,80.04
2023-05-18T16:23:56.537Z,80.17
2023-05-18T16:26:58.322Z,80.18
2023-05-18T16:30:00.015Z,80.00
2023-05-18T16:33:01.834Z,80.07
2023-05-18T16:36:04.249Z,80.27
2023-05-18T16:39:05.855Z,80.25
2023-05-18T16:42:07.849Z,80.42
2023-05-18T16:45:09.923Z,80.23
2023-05-18T16:48:11.613Z,80.10
2023-05-18T16:51:13.199Z,80.31
2023-05-18T16:54:15.004Z,80.24
2023-05-18T16:57:16.577Z,80.36
2023-05-18T17:00:18.970Z,80.37
2023-05-18T17:03:20.765Z,80.19
2023-05-18T17:06:22.458Z,80.30
2023-05-18T17:09:24.135Z,80.44
2023-05-18T17:12:25.735Z,80.24
2023-05-18T17:15:27.393Z,80.47
2023-05-18T17:18:28.958Z,80.44
2023-05-18T17:21:30.636Z,80.32
2023-05-18T17:24:32.299Z,80.31
2023-05-18T17:27:33.936Z,80.23
2023-05-18T17:30:35.594Z,80.25
2023-05-18T17:33:37.128Z,80.44
2023-05-18T17:36:38.821Z,80.22
2023-05-18T17:39:40.552Z,80.30
2023-05-18T17:42:42.149Z,80.42
2023-05-18T17:45:43.861Z,80.20
2023-05-18T17:48:45.479Z,80.30
2023-05-18T17:51:47.223Z,80.61
2023-05-18T17:54:49.005Z,80.65
2023-05-18T17:57:51.238Z,80.46
2023-05-18T18:00:52.851Z,80.41
2023-05-18T18:03:55.084Z,80.42
2023-05-18T18:06:56.899Z,80.37
2023-05-18T18:09:58.556Z,80.37
2023-05-18T18:13:00.144Z,79.97
2023-05-18T18:16:02.996Z,80.06
2023-05-18T18:19:04.686Z,80.44
2023-05-18T18:22:06.738Z,80.54
2023-05-18T18:25:08.568Z,80.76
2023-05-18T18:28:10.188Z,80.96
2023-05-18T18:31:11.902Z,81.10
2023-05-18T18:34:13.549Z,80.98
2023-05-18T18:37:15.211Z,80.96
2023-05-18T18:40:16.939Z,81.03
2023-05-18T18:43:18.492Z,80.97
2023-05-18T18:46:20.484Z,81.15
2023-05-18T18:49:22.242Z,81.06
2023-05-18T18:52:23.953Z,81.21
2023-05-18T18:55:25.567Z,81.16
2023-05-18T18:58:27.214Z,81.14
2023-05-18T19:01:28.879Z,81.30
2023-05-18T19:04:30.994Z,81.26
2023-05-18T19:07:33.437Z,81.31
2023-05-18T19:10:35.653Z,81.28
2023-05-18T19:13:37.376Z,81.35
2023-05-18T19:16:39.165Z,81.34
2023-05-18T19:19:40.843Z,81.29
2023-05-18T19:22:42.427Z,81.35
2023-05-18T19:25:44.638Z,81.31
2023-05-18T19:28:46.485Z,81.32
2023-05-18T19:31:48.289Z,81.46
2023-05-18T19:34:50.048Z,81.57
2023-05-18T19:37:51.842Z,81.41
2023-05-18T19:40:56.785Z,81.54
2023-05-18T19:43:58.370Z,81.81
2023-05-18T19:47:00.108Z,81.76
2023-05-18T19:50:01.895Z,81.78
2023-05-18T19:53:03.564Z,81.66
2023-05-18T19:56:05.411Z,81.75
2023-05-18T19:59:07.013Z,81.70
2023-05-18T20:02:09.005Z,81.90
2023-05-18T20:05:10.803Z,81.85
2023-05-18T20:08:12.440Z,81.80
2023-05-18T20:11:14.576Z,82.09
2023-05-18T20:14:16.130Z,82.06
2023-05-18T20:17:17.875Z,81.84
2023-05-18T20:20:19.423Z,82.05
2023-05-18T20:23:21.042Z,82.02
2023-05-18T20:26:23.382Z,82.16
2023-05-18T20:29:25.065Z,82.13
2023-05-18T20:32:26.645Z,81.99
2023-05-18T20:35:28.275Z,82.07
2023-05-18T20:38:29.885Z,81.99
2023-05-18T20:41:31.490Z,81.86
2023-05-18T20:44:33.154Z,81.94
2023-05-18T20:47:35.250Z,82.05
2023-05-18T20:50:36.893Z,82.29
2023-05-18T20:53:38.492Z,82.31
2023-05-18T20:56:40.086Z,82.33
2023-05-18T20:59:41.886Z,82.20
2023-05-18T21:02:44.536Z,82.27
2023-05-18T21:05:46.354Z,82.13
2023-05-18T21:08:50.522Z,82.07
2023-05-18T21:11:52.330Z,82.11
2023-05-18T21:14:54.112Z,81.91
2023-05-18T21:17:55.818Z,81.92
2023-05-18T21:20:57.452Z,82.02
2023-05-18T21:23:59.105Z,81.86
2023-05-18T21:27:00.775Z,81.92
2023-05-18T21:30:02.524Z,81.97
2023-05-18T21:33:04.261Z,81.97
2023-05-18T21:36:06.269Z,81.71
2023-05-18T21:39:08.008Z,81.84
2023-05-18T21:42:10.281Z,81.77
2023-05-18T21:45:12.620Z,81.79
2023-05-18T21:48:14.436Z,81.85
2023-05-18T21:51:16.973Z,81.79
2023-05-18T21:54:18.615Z,81.72
2023-05-18T21:57:20.315Z,81.76
2023-05-18T22:00:22.094Z,81.82
2023-05-18T22:03:24.212Z,81.60
2023-05-18T22:06:25.957Z,81.71
2023-05-18T22:09:27.596Z,81.63
2023-05-18T22:12:29.238Z,81.80
2023-05-18T22:15:30.794Z,81.71
2023-05-18T22:18:32.459Z,81.74
2023-05-18T22:21:34.082Z,81.86
2023-05-18T22:24:35.743Z,81.89
2023-05-18T22:27:37.455Z,81.92
2023-05-18T22:30:39.601Z,81.62
2023-05-18T22:33:41.248Z,81.64
2023-05-18T22:36:42.905Z,81.68
2023-05-18T22:39:44.726Z,81.77
2023-05-18T22:42:46.489Z,81.80
2023-05-18T22:45:48.772Z,81.84
2023-05-18T22:48:50.343Z,81.57
2023-05-18T22:51:51.988Z,81.67
2023-05-18T22:54:53.688Z,81.73
2023-05-18T22:57:55.366Z,81.82
2023-05-18T23:00:57.157Z,81.84
2023-05-18T23:03:58.834Z,81.79
2023-05-18T23:07:00.702Z,81.75
2023-05-18T23:10:07.706Z,81.95
2023-05-18T23:13:10.826Z,81.75
2023-05-18T23:16:12.444Z,81.75
2023-05-18T23:19:14.076Z,81.67
2023-05-18T23:22:16.548Z,81.91
2023-05-18T23:25:18.441Z,81.76
2023-05-18T23:28:20.160Z,81.56
2023-05-18T23:31:21.848Z,81.70
2023-05-18T23:34:23.834Z,81.82
2023-05-18T23:37:25.828Z,81.70
2023-05-18T23:40:28.205Z,81.77
2023-05-18T23:43:30.214Z,81.81
2023-05-18T23:46:32.143Z,81.76
2023-05-18T23:49:34.045Z,81.81
2023-05-18T23:52:36.401Z,81.71
2023-05-18T23:55:40.104Z,81.79
2023-05-18T23:58:43.007Z,81.73
